KIMT/IMT METAR and TAF weather

Enter ICAO airport designator
Station Type Date Time Source
KIMT METAR 2021/03/05 05:54 UTC NOAA

KIMT 050554Z AUTO 00000KT 10SM SCT060 M06/M11 A3030 RMK AO2 SLP280 T10611106 10000 21067 400281111 56007


Station Type Date Time Source
KIMT Decoded METAR 2021/03/05 05:54 UTC NOAA

IRON MOUNTAIN FORD AIRPORT, MI, United States (KIMT) 45-49N 88-07W 349M
Mar 05, 2021 - 12:54 AM EST / 2021.03.05 0554 UTC
Wind: Calm:0
Visibility: 10 mile(s):0
Sky conditions: partly cloudy
Temperature: 21.0 F (-6.1 C)
Dew Point: 12.9 F (-10.6 C)
Relative Humidity: 70%
Pressure (altimeter): 30.3 in. Hg (1026 hPa)
Pressure tendency: 0.02 inches (0.7 hPa) lower than three hours ago
ob: KIMT 050554Z AUTO 00000KT 10SM SCT060 M06/M11 A3030 RMK AO2 SLP280 T10611106 10000 21067 400281111 56007
cycle: 6

Station Type Date Time Source
KIMT TAF UTC NOAA

Error!

Example: see airport list